Time;durP1;ratioP1;P1;durP2;ratioP2;P2;SDS_P1;SDS_P2;PMS_P1;PMS_P2;Temp;Humidity;BMP_temperature;BMP_pressure;BME280_temperature;BME280_humidity;BME280_pressure;Samples;Min_cycle;Max_cycle;Signal;HPM_P1;HPM_P2
2022/10/08 00:01:48;;;;;;;0.10;0.10;;;;;;;8.13;87.56;100537.78;5045999;28;20328;-68
2022/10/08 00:04:14;;;;;;;0.10;0.10;;;;;;;8.14;87.71;100533.97;5047112;28;20084;-69
2022/10/08 00:06:40;;;;;;;0.20;0.20;;;;;;;8.08;87.78;100524.06;5044523;28;20120;-68
2022/10/08 00:09:06;;;;;;;0.10;0.10;;;;;;;8.09;88.01;100531.16;5042779;28;20574;-67
2022/10/08 00:11:35;;;;;;;0.10;0.10;;;;;;;8.09;88.39;100533.88;5042695;28;20072;-67
2022/10/08 00:14:02;;;;;;;0.10;0.10;;;;;;;8.09;88.33;100523.00;5043702;28;20041;-68
2022/10/08 00:16:30;;;;;;;0.10;0.10;;;;;;;8.07;88.46;100525.94;5043751;28;20052;-68
2022/10/08 00:19:00;;;;;;;0.93;0.20;;;;;;;8.03;88.70;100535.66;5026598;28;20045;-68
2022/10/08 00:21:28;;;;;;;0.10;0.10;;;;;;;8.01;88.71;100537.81;5043246;28;20091;-68
2022/10/08 00:23:56;;;;;;;0.10;0.10;;;;;;;8.02;88.87;100530.44;5024954;28;20045;-68
2022/10/08 00:26:23;;;;;;;;;;;;;;;8.03;88.98;100534.81;5035618;28;21091;-68
2022/10/08 00:28:51;;;;;;;0.10;0.10;;;;;;;8.06;89.20;100534.38;5021699;28;20327;-68
2022/10/08 00:31:21;;;;;;;0.10;0.10;;;;;;;8.08;88.89;100534.97;5022564;28;20041;-68
2022/10/08 00:33:48;;;;;;;0.10;0.10;;;;;;;8.08;88.76;100538.50;5006972;28;20148;-68
2022/10/08 00:36:14;;;;;;;0.20;0.20;;;;;;;8.12;88.98;100525.22;5024055;28;20038;-68
2022/10/08 00:38:40;;;;;;;0.10;0.10;;;;;;;8.19;88.81;100530.53;5023998;28;20059;-68
2022/10/08 00:41:15;;;;;;;0.10;0.10;;;;;;;8.28;88.36;100528.25;5024978;28;20586;-68
2022/10/08 00:43:43;;;;;;;0.28;0.20;;;;;;;8.32;88.26;100524.81;5021656;28;20099;-68
2022/10/08 00:46:22;;;;;;;0.10;0.10;;;;;;;8.34;87.95;100519.13;5022080;28;20060;-68
2022/10/08 00:48:49;;;;;;;0.13;0.13;;;;;;;8.42;87.70;100531.53;5024484;28;20590;-68
2022/10/08 00:51:15;;;;;;;0.20;0.20;;;;;;;8.49;87.61;100526.78;5023135;28;20057;-68
2022/10/08 00:53:42;;;;;;;0.10;0.10;;;;;;;8.56;87.18;100527.47;5024969;28;20384;-68
2022/10/08 00:56:09;;;;;;;0.10;0.10;;;;;;;8.62;86.90;100525.69;5026218;28;20056;-68
2022/10/08 00:58:36;;;;;;;0.20;0.20;;;;;;;8.68;86.59;100529.31;5023214;28;20516;-69
2022/10/08 01:01:02;;;;;;;0.20;0.20;;;;;;;8.73;86.38;100532.97;5029455;28;20046;-68
2022/10/08 01:03:30;;;;;;;0.10;0.10;;;;;;;8.76;85.68;100528.94;5025106;28;20061;-69
2022/10/08 01:06:05;;;;;;;0.10;0.10;;;;;;;8.77;85.76;100531.41;5007160;28;20107;-68
2022/10/08 01:08:36;;;;;;;0.10;0.10;;;;;;;8.75;85.58;100532.75;5025291;28;20049;-69
2022/10/08 01:11:10;;;;;;;0.10;0.10;;;;;;;8.77;85.66;100531.41;5007807;28;20045;-68
2022/10/08 01:13:42;;;;;;;0.10;0.10;;;;;;;8.79;85.25;100529.25;5004661;28;20075;-69
2022/10/08 01:16:23;;;;;;;0.10;0.10;;;;;;;8.80;85.03;100530.91;5006243;28;20501;-68
2022/10/08 01:18:57;;;;;;;0.10;0.10;;;;;;;8.81;85.18;100523.56;5026833;28;20057;-68
2022/10/08 01:21:33;;;;;;;0.10;0.10;;;;;;;8.85;84.39;100518.47;5021647;28;20046;-68
2022/10/08 01:25:31;;;;;;;0.10;0.10;;;;;;;8.81;84.44;100520.84;5026456;28;20053;-67
2022/10/08 01:27:19;;;;;;;0.20;0.20;;;;;;;8.83;84.03;100534.25;5023381;28;20081;-68
2022/10/08 01:29:48;;;;;;;0.10;0.10;;;;;;;8.79;84.25;100539.34;5024787;28;20107;-69
2022/10/08 01:32:19;;;;;;;0.10;0.10;;;;;;;8.79;84.30;100542.91;5023580;28;20072;-68
2022/10/08 01:34:49;;;;;;;0.10;0.10;;;;;;;8.80;84.33;100536.38;5025133;28;20081;-66
2022/10/08 01:37:20;;;;;;;0.10;0.10;;;;;;;8.84;84.00;100541.34;5021858;28;20616;-67
2022/10/08 01:39:51;;;;;;;0.30;0.20;;;;;;;8.83;84.13;100539.72;5022485;28;20144;-68
2022/10/08 01:42:22;;;;;;;0.20;0.20;;;;;;;8.79;84.13;100542.91;5023270;28;20135;-68
2022/10/08 01:44:53;;;;;;;0.15;0.15;;;;;;;8.77;84.43;100541.50;5025250;28;20123;-67
2022/10/08 01:47:22;;;;;;;0.15;0.10;;;;;;;8.76;84.73;100542.59;5023241;28;20045;-68
2022/10/08 01:49:52;;;;;;;0.38;0.22;;;;;;;8.72;84.72;100538.66;5025198;28;20049;-68
2022/10/08 01:52:24;;;;;;;0.10;0.10;;;;;;;8.76;84.93;100528.94;5023232;28;20049;-66
2022/10/08 01:54:54;;;;;;;0.10;0.10;;;;;;;8.81;84.69;100537.22;5023427;28;20049;-68
2022/10/08 01:57:23;;;;;;;0.10;0.10;;;;;;;8.89;84.34;100535.97;5022249;28;20563;-68
2022/10/08 01:59:55;;;;;;;0.10;0.10;;;;;;;8.94;84.28;100536.06;5024347;28;20061;-67
2022/10/08 02:02:22;;;;;;;0.10;0.10;;;;;;;8.99;83.85;100541.63;5022868;28;20394;-68
2022/10/08 02:04:50;;;;;;;;;;;;;;;9.00;83.69;100537.81;5023549;28;20068;-68
2022/10/08 02:07:18;;;;;;;0.20;0.10;;;;;;;9.00;83.47;100539.72;5025329;28;20411;-67
2022/10/08 02:09:47;;;;;;;0.10;0.10;;;;;;;8.99;83.30;100532.59;5022712;28;20136;-68
2022/10/08 02:12:13;;;;;;;0.10;0.10;;;;;;;9.00;83.45;100543.28;5026219;28;20073;-67
2022/10/08 02:14:46;;;;;;;0.10;0.10;;;;;;;8.99;83.25;100538.06;5027367;28;20939;-68
2022/10/08 02:17:23;;;;;;;0.20;0.20;;;;;;;8.91;83.35;100529.22;5024132;28;20060;-68
2022/10/08 02:19:54;;;;;;;0.10;0.10;;;;;;;8.98;83.42;100539.97;5026497;28;20061;-69
2022/10/08 02:22:24;;;;;;;0.10;0.10;;;;;;;9.00;83.43;100540.56;5024134;28;20511;-71
2022/10/08 02:24:55;;;;;;;0.10;0.10;;;;;;;9.03;83.58;100537.31;5026887;28;20872;-67
2022/10/08 02:27:28;;;;;;;0.20;0.20;;;;;;;9.05;83.26;100539.78;5026769;28;20535;-67
2022/10/08 02:30:03;;;;;;;0.10;0.10;;;;;;;9.07;83.04;100541.22;5026675;28;20484;-68
2022/10/08 02:32:35;;;;;;;0.10;0.10;;;;;;;9.07;82.88;100545.84;5028876;28;20045;-68
2022/10/08 02:35:10;;;;;;;0.10;0.10;;;;;;;9.07;83.00;100543.13;5028118;28;20041;-68
2022/10/08 02:37:41;;;;;;;0.10;0.10;;;;;;;9.07;82.74;100540.41;5026821;28;20049;-68
2022/10/08 02:40:11;;;;;;;0.10;0.10;;;;;;;9.09;82.41;100551.88;5025082;28;20049;-67
2022/10/08 02:42:43;;;;;;;0.10;0.10;;;;;;;9.11;82.62;100557.91;5008603;28;20060;-68
2022/10/08 02:45:15;;;;;;;0.10;0.10;;;;;;;9.11;82.75;100551.63;5025564;28;20053;-66
2022/10/08 02:47:46;;;;;;;0.10;0.10;;;;;;;9.12;82.46;100554.13;5025020;28;20091;-67
2022/10/08 02:50:16;;;;;;;0.20;0.20;;;;;;;9.10;82.61;100550.81;5022801;28;20099;-66
2022/10/08 02:52:46;;;;;;;0.13;0.13;;;;;;;9.12;82.46;100559.56;5025698;28;20132;-67
2022/10/08 02:55:21;;;;;;;0.10;0.10;;;;;;;9.14;82.44;100553.88;5023526;28;20152;-68
2022/10/08 02:57:55;;;;;;;0.10;0.10;;;;;;;9.10;82.54;100550.81;5025533;28;20075;-68
2022/10/08 03:00:23;;;;;;;0.10;0.10;;;;;;;9.09;82.35;100551.88;5025735;28;20175;-67
2022/10/08 03:02:56;;;;;;;0.10;0.10;;;;;;;9.11;82.41;100547.00;5028275;28;20076;-68
2022/10/08 03:05:22;;;;;;;0.10;0.10;;;;;;;9.07;82.41;100533.03;5027214;28;20103;-67
2022/10/08 03:07:52;;;;;;;0.10;0.10;;;;;;;9.10;82.50;100545.34;5026000;28;20045;-68
2022/10/08 03:10:20;;;;;;;0.10;0.10;;;;;;;9.08;82.42;100531.94;5028808;28;20409;-68
2022/10/08 03:12:46;;;;;;;0.47;0.10;;;;;;;9.08;82.37;100547.50;5026304;28;20406;-67
2022/10/08 03:15:13;;;;;;;0.10;0.10;;;;;;;9.08;82.42;100542.06;5033010;28;20045;-69
2022/10/08 03:17:44;;;;;;;0.17;0.17;;;;;;;9.10;82.24;100537.16;5024099;28;20108;-67
2022/10/08 03:20:11;;;;;;;0.10;0.10;;;;;;;9.13;82.16;100536.66;5027319;28;20049;-66
2022/10/08 03:22:37;;;;;;;0.22;0.22;;;;;;;9.14;82.19;100543.78;5022798;28;20041;-69
2022/10/08 03:25:04;;;;;;;0.10;0.10;;;;;;;9.17;81.88;100546.00;5025773;28;20057;-68
2022/10/08 03:27:31;;;;;;;0.32;0.13;;;;;;;9.15;81.82;100542.72;5025209;28;20053;-68
2022/10/08 03:29:57;;;;;;;0.10;0.10;;;;;;;9.08;81.79;100529.22;5011024;28;20065;-68
2022/10/08 03:32:24;;;;;;;0.20;0.20;;;;;;;9.19;81.88;100543.84;5028240;28;20432;-68
2022/10/08 03:34:52;;;;;;;0.10;0.10;;;;;;;9.19;81.57;100546.59;5015510;28;20247;-68
2022/10/08 03:37:18;;;;;;;0.10;0.10;;;;;;;9.17;81.37;100546.00;5026966;28;20057;-68
2022/10/08 03:39:44;;;;;;;0.10;0.10;;;;;;;9.12;81.51;100542.38;5027298;28;20512;-68
2022/10/08 03:42:11;;;;;;;0.10;0.10;;;;;;;9.10;81.52;100545.34;5028390;28;20040;-68
2022/10/08 03:44:37;;;;;;;0.10;0.10;;;;;;;9.10;81.77;100537.16;5033605;28;20053;-66
2022/10/08 03:47:03;;;;;;;0.10;0.10;;;;;;;9.10;81.63;100548.09;5025529;28;20053;-68
2022/10/08 03:49:29;;;;;;;0.10;0.10;;;;;;;9.14;81.80;100553.88;5024011;28;20045;-69
2022/10/08 03:51:57;;;;;;;0.10;0.10;;;;;;;9.17;81.54;100550.66;5023068;28;20045;-66
2022/10/08 03:54:22;;;;;;;;;;;;;;;9.17;81.47;100547.94;5029789;28;20045;-67
2022/10/08 03:56:48;;;;;;;0.10;0.10;;;;;;;9.18;81.59;100552.31;5023507;28;20450;-67
2022/10/08 03:59:14;;;;;;;0.20;0.20;;;;;;;9.20;81.39;100552.88;5042488;28;20435;-66
2022/10/08 04:01:40;;;;;;;0.10;0.10;;;;;;;9.23;81.28;100546.94;5037005;28;20091;-68
2022/10/08 04:04:06;;;;;;;0.10;0.10;;;;;;;9.24;81.36;100548.56;5034760;28;20546;-68
2022/10/08 04:06:32;;;;;;;0.10;0.10;;;;;;;9.26;81.11;100551.88;5032413;28;20092;-67
2022/10/08 04:09:00;;;;;;;0.10;0.10;;;;;;;9.30;81.28;100552.22;5028990;28;20508;-68
2022/10/08 04:11:27;;;;;;;0.10;0.10;;;;;;;9.34;81.20;100550.66;5038408;28;20488;-68
2022/10/08 04:13:53;;;;;;;;;;;;;;;9.35;81.30;100549.56;5037096;28;20484;-67
2022/10/08 04:16:19;;;;;;;0.10;0.10;;;;;;;9.38;80.96;100549.09;5034524;28;19925;-69
2022/10/08 04:18:46;;;;;;;0.10;0.10;;;;;;;9.42;80.88;100547.50;5033678;28;20056;-68
2022/10/08 04:21:14;;;;;;;0.10;0.10;;;;;;;9.43;81.00;100546.44;5031861;28;20398;-68
2022/10/08 04:23:42;;;;;;;0.10;0.10;;;;;;;9.29;80.88;100526.84;5033968;28;20048;-68
2022/10/08 04:26:12;;;;;;;0.10;0.10;;;;;;;9.44;80.61;100541.78;5034862;28;20663;-68
2022/10/08 04:28:40;;;;;;;0.10;0.10;;;;;;;9.46;80.73;100548.66;5031238;28;20592;-68
2022/10/08 04:31:09;;;;;;;0.20;0.20;;;;;;;9.43;80.47;100548.31;5029908;28;20041;-69
2022/10/08 04:33:35;;;;;;;0.10;0.10;;;;;;;9.43;80.44;100549.16;5028001;28;20497;-68
2022/10/08 04:36:06;;;;;;;0.10;0.10;;;;;;;9.43;80.50;100548.31;5035154;28;20049;-67
2022/10/08 04:38:32;;;;;;;0.20;0.20;;;;;;;9.47;80.41;100546.78;5036389;28;20052;-67
2022/10/08 04:41:04;;;;;;;0.10;0.10;;;;;;;9.48;80.39;100543.78;5038308;28;20037;-68
2022/10/08 04:43:31;;;;;;;0.10;0.10;;;;;;;9.46;80.27;100556.03;5022314;28;20436;-68
2022/10/08 04:45:57;;;;;;;0.10;0.10;;;;;;;9.44;80.03;100558.16;5026507;28;20056;-68
2022/10/08 04:48:23;;;;;;;0.45;0.20;;;;;;;9.49;80.09;100558.25;5032031;28;20045;-68
2022/10/08 04:50:54;;;;;;;0.10;0.10;;;;;;;9.47;79.70;100558.50;5022650;28;20041;-69
2022/10/08 04:53:20;;;;;;;0.10;0.10;;;;;;;9.47;80.02;100560.41;5024598;28;20057;-68
2022/10/08 04:55:46;;;;;;;0.20;0.20;;;;;;;9.49;79.89;100561.81;5022607;28;20574;-68
2022/10/08 04:58:12;;;;;;;0.20;0.20;;;;;;;9.50;79.64;100570.84;5023222;28;20057;-68
2022/10/08 05:00:39;;;;;;;0.10;0.10;;;;;;;9.55;79.79;100564.63;5031505;28;20595;-68
2022/10/08 05:03:05;;;;;;;0.17;0.17;;;;;;;9.62;79.62;100570.75;5023273;28;20057;-69
2022/10/08 05:05:31;;;;;;;0.10;0.10;;;;;;;9.64;79.25;100572.16;5041708;28;20075;-68
2022/10/08 05:07:57;;;;;;;0.20;0.20;;;;;;;9.64;79.28;100571.31;5034042;28;20041;-70
2022/10/08 05:10:23;;;;;;;0.10;0.10;;;;;;;9.65;79.01;100571.06;5034273;28;20053;-68
2022/10/08 05:12:49;;;;;;;0.10;0.10;;;;;;;9.68;78.86;100572.50;5021458;28;20198;-69
2022/10/08 05:15:16;;;;;;;0.10;0.10;;;;;;;9.69;78.89;100567.84;5025329;28;20132;-68
2022/10/08 05:17:43;;;;;;;0.20;0.20;;;;;;;9.74;78.85;100570.63;5025998;28;20069;-67
2022/10/08 05:20:09;;;;;;;0.10;0.10;;;;;;;9.77;78.68;100581.88;5007679;28;20057;-68
2022/10/08 05:22:35;;;;;;;0.10;0.10;;;;;;;9.81;78.58;100582.22;5023425;28;20045;-67
2022/10/08 05:25:01;;;;;;;0.17;0.17;;;;;;;9.82;78.76;100578.41;5026111;28;20049;-67
2022/10/08 05:27:27;;;;;;;0.10;0.10;;;;;;;9.84;78.50;100581.72;5022739;28;20315;-67
2022/10/08 05:29:53;;;;;;;0.10;0.10;;;;;;;9.85;78.58;100579.84;5027009;28;20053;-67
2022/10/08 05:32:19;;;;;;;0.15;0.15;;;;;;;9.88;78.63;100579.31;5023344;28;20041;-68
2022/10/08 05:34:46;;;;;;;0.17;0.17;;;;;;;9.91;78.24;100584.28;5026113;28;20099;-68
2022/10/08 05:37:12;;;;;;;0.10;0.10;;;;;;;9.95;78.23;100579.97;5024248;28;20041;-68
2022/10/08 05:39:38;;;;;;;0.20;0.20;;;;;;;9.99;77.74;100592.06;5023478;28;20458;-68
2022/10/08 05:42:04;;;;;;;0.10;0.10;;;;;;;9.96;77.91;100591.72;4698133;28;10000545;-68
2022/10/08 05:44:30;;;;;;;0.10;0.10;;;;;;;9.97;77.82;100590.66;5056920;28;20415;-65
2022/10/08 05:46:57;;;;;;;0.10;0.10;;;;;;;9.98;77.95;100584.09;5066181;28;20052;-67
2022/10/08 05:49:23;;;;;;;0.10;0.10;;;;;;;10.00;77.15;100585.50;5036912;28;20365;-68
2022/10/08 05:51:50;;;;;;;0.30;0.20;;;;;;;9.99;77.30;100578.41;5035963;28;20498;-68
2022/10/08 05:54:17;;;;;;;0.20;0.20;;;;;;;9.94;77.46;100578.31;5032837;28;20471;-69
2022/10/08 05:56:43;;;;;;;0.20;0.20;;;;;;;9.89;77.69;100587.25;5029875;28;20559;-68
2022/10/08 05:59:15;;;;;;;0.10;0.10;;;;;;;9.89;77.74;100584.50;5022862;28;20056;-68
2022/10/08 06:01:41;;;;;;;0.32;0.20;;;;;;;9.91;77.65;100582.38;5036059;28;20336;-68
2022/10/08 06:04:09;;;;;;;0.10;0.10;;;;;;;9.95;77.41;100584.59;5044762;28;20080;-68
2022/10/08 06:06:37;;;;;;;0.20;0.20;;;;;;;10.01;77.14;100586.31;5044480;28;20303;-67
2022/10/08 06:09:06;;;;;;;0.25;0.22;;;;;;;10.07;76.63;100579.88;5044309;28;20104;-68
2022/10/08 06:11:34;;;;;;;0.10;0.10;;;;;;;10.10;76.25;100584.81;5043531;28;20210;-68
2022/10/08 06:14:01;;;;;;;0.20;0.20;;;;;;;10.12;76.07;100588.13;5040914;28;20130;-68
2022/10/08 06:16:28;;;;;;;0.20;0.20;;;;;;;10.18;75.81;100576.16;5039063;28;20056;-68
2022/10/08 06:18:55;;;;;;;0.20;0.20;;;;;;;10.28;75.46;100582.88;5047253;28;20052;-69
2022/10/08 06:21:23;;;;;;;0.10;0.10;;;;;;;10.43;75.11;100587.72;5044968;28;20053;-68
2022/10/08 06:23:50;;;;;;;0.20;0.20;;;;;;;10.54;74.60;100580.47;5043934;28;20049;-68
2022/10/08 06:26:21;;;;;;;0.20;0.20;;;;;;;10.67;74.27;100582.00;5042746;28;20150;-68
2022/10/08 06:28:48;;;;;;;0.20;0.20;;;;;;;10.81;73.51;100585.13;5038050;28;20140;-69
2022/10/08 06:31:15;;;;;;;0.20;0.20;;;;;;;10.87;73.18;100587.66;5043912;28;20053;-69
2022/10/08 06:33:41;;;;;;;0.20;0.20;;;;;;;10.97;72.57;100583.41;5045194;28;20071;-68
2022/10/08 06:36:13;;;;;;;0.20;0.20;;;;;;;11.07;72.01;100594.44;5047151;28;20575;-68
2022/10/08 06:38:39;;;;;;;0.20;0.20;;;;;;;11.12;71.47;100599.13;5046064;28;20051;-67
2022/10/08 06:41:05;;;;;;;0.20;0.20;;;;;;;11.16;71.72;100592.88;5049632;28;20071;-68
2022/10/08 06:43:33;;;;;;;0.20;0.20;;;;;;;11.29;71.31;100585.34;5046473;28;20144;-68
2022/10/08 06:46:02;;;;;;;;;;;;;;;11.43;70.78;100588.47;5048423;28;20485;-68
2022/10/08 06:48:28;;;;;;;0.20;0.20;;;;;;;11.55;70.45;100591.84;5043185;28;20106;-68
2022/10/08 06:50:58;;;;;;;0.22;0.22;;;;;;;11.70;69.91;100588.38;5045424;28;20407;-68
2022/10/08 06:53:24;;;;;;;0.20;0.20;;;;;;;11.86;68.82;100585.75;5044020;28;20071;-68
2022/10/08 06:55:55;;;;;;;0.20;0.20;;;;;;;12.01;68.30;100588.59;5019222;28;20048;-68
2022/10/08 06:58:21;;;;;;;0.20;0.20;;;;;;;12.22;66.91;100585.16;5025347;28;20151;-68
2022/10/08 07:00:49;;;;;;;0.20;0.20;;;;;;;12.22;66.54;100590.66;5027910;28;20136;-68
2022/10/08 07:03:15;;;;;;;0.20;0.20;;;;;;;12.28;66.18;100587.66;5024502;28;20060;-69
2022/10/08 07:05:42;;;;;;;0.30;0.30;;;;;;;12.26;65.81;100587.09;5025877;28;20053;-69
2022/10/08 07:08:08;;;;;;;;;;;;;;;12.20;65.02;100585.44;5026294;28;20064;-69
2022/10/08 07:10:34;;;;;;;0.20;0.20;;;;;;;12.21;65.12;100584.34;5028272;28;20192;-68
2022/10/08 07:13:00;;;;;;;0.30;0.30;;;;;;;12.42;65.13;100582.53;5023882;28;20052;-69
2022/10/08 07:15:26;;;;;;;0.30;0.30;;;;;;;12.83;63.42;100589.22;5024268;28;20424;-69
2022/10/08 07:17:53;;;;;;;0.30;0.30;;;;;;;12.95;63.06;100581.56;5027582;28;20955;-67
2022/10/08 07:20:19;;;;;;;0.25;0.25;;;;;;;12.96;61.88;100571.44;5027345;28;20053;-68
2022/10/08 07:22:45;;;;;;;0.20;0.20;;;;;;;12.96;62.04;100569.50;5023337;28;20045;-67
2022/10/08 07:25:11;;;;;;;0.20;0.20;;;;;;;13.09;61.25;100575.56;5022620;28;20056;-69
2022/10/08 07:27:37;;;;;;;0.30;0.30;;;;;;;13.13;60.84;100571.16;5024807;28;20111;-69
2022/10/08 07:30:05;;;;;;;0.30;0.30;;;;;;;13.58;58.83;100565.97;5025477;28;20531;-69
2022/10/08 07:32:31;;;;;;;0.30;0.30;;;;;;;13.82;57.91;100560.72;5023971;28;20052;-69
2022/10/08 07:34:58;;;;;;;0.30;0.30;;;;;;;13.99;56.47;100574.16;5023270;28;20041;-70
2022/10/08 07:37:24;;;;;;;0.20;0.20;;;;;;;13.64;56.89;100559.38;5006924;28;20475;-68
2022/10/08 07:39:50;;;;;;;0.30;0.30;;;;;;;13.81;56.14;100567.31;5024293;28;20393;-69
2022/10/08 07:42:16;;;;;;;0.30;0.30;;;;;;;14.33;54.55;100559.72;5026331;28;20560;-68
2022/10/08 07:44:42;;;;;;;0.30;0.30;;;;;;;15.01;52.95;100559.41;5024959;28;20085;-68
2022/10/08 07:47:08;;;;;;;0.52;0.40;;;;;;;15.36;51.86;100562.97;5027007;28;20069;-67
2022/10/08 07:49:35;;;;;;;0.30;0.30;;;;;;;15.56;51.49;100561.97;5021832;28;20136;-68
2022/10/08 07:52:02;;;;;;;0.30;0.30;;;;;;;15.65;51.52;100566.84;4690229;28;10000321;-69
2022/10/08 07:54:29;;;;;;;0.30;0.30;;;;;;;15.73;50.70;100566.22;5022036;28;20049;-69
2022/10/08 07:56:55;;;;;;;0.40;0.40;;;;;;;15.90;51.10;100565.78;5020967;28;20517;-68
2022/10/08 07:59:21;;;;;;;0.40;0.40;;;;;;;16.11;49.70;100560.06;5022434;28;20053;-68
2022/10/08 08:01:49;;;;;;;0.30;0.30;;;;;;;16.20;49.60;100561.03;5026529;28;20049;-68
2022/10/08 08:04:16;;;;;;;0.30;0.30;;;;;;;16.27;49.46;100553.25;5001812;28;20081;-68
2022/10/08 08:06:48;;;;;;;0.40;0.40;;;;;;;16.40;49.06;100564.69;5025500;28;20501;-68
2022/10/08 08:09:17;;;;;;;0.40;0.40;;;;;;;16.48;48.40;100554.94;5035662;28;20053;-68
2022/10/08 08:11:44;;;;;;;0.40;0.40;;;;;;;16.64;48.17;100558.28;5028534;28;20488;-68
2022/10/08 08:14:11;;;;;;;0.40;0.40;;;;;;;16.76;48.03;100553.16;5023528;28;20127;-68
2022/10/08 08:16:38;;;;;;;0.40;0.40;;;;;;;16.95;47.45;100550.41;5036263;28;20044;-69
2022/10/08 08:19:04;;;;;;;0.40;0.40;;;;;;;17.28;46.85;100566.19;5011240;28;20049;-68
2022/10/08 08:21:32;;;;;;;0.40;0.40;;;;;;;17.08;46.50;100551.59;5031167;28;20113;-68
2022/10/08 08:24:02;;;;;;;0.50;0.50;;;;;;;17.10;46.88;100541.06;5027430;28;20045;-69
2022/10/08 08:26:34;;;;;;;0.40;0.40;;;;;;;17.58;46.39;100534.47;5025191;28;20046;-68
2022/10/08 08:29:03;;;;;;;0.50;0.50;;;;;;;17.36;46.45;100550.88;5024158;28;20073;-68
2022/10/08 08:31:31;;;;;;;0.40;0.40;;;;;;;17.42;46.34;100553.25;5025362;28;20042;-68
2022/10/08 08:33:59;;;;;;;0.40;0.40;;;;;;;17.04;46.65;100541.44;5027850;28;20053;-70
2022/10/08 08:36:28;;;;;;;0.40;0.40;;;;;;;17.36;46.58;100540.66;5024427;28;20111;-69
2022/10/08 08:38:54;;;;;;;0.60;0.60;;;;;;;17.98;45.16;100535.91;5024419;28;20584;-69
2022/10/08 08:41:39;;;;;;;0.50;0.50;;;;;;;18.31;44.57;100541.34;5023964;28;20174;-68
2022/10/08 08:44:09;;;;;;;0.30;0.30;;;;;;;17.73;44.49;100549.13;5025679;28;20045;-68
2022/10/08 08:46:39;;;;;;;0.40;0.40;;;;;;;17.17;45.50;100592.34;5025188;28;20072;-69
2022/10/08 08:49:15;;;;;;;0.50;0.50;;;;;;;17.35;44.54;100527.13;5032926;28;20122;-68
2022/10/08 08:51:41;;;;;;;0.30;0.30;;;;;;;17.00;45.12;100524.66;5031371;28;20045;-68
2022/10/08 08:54:07;;;;;;;0.30;0.30;;;;;;;15.83;47.70;100524.75;5020241;28;20467;-69
2022/10/08 08:56:35;;;;;;;0.40;0.30;;;;;;;14.95;50.08;100533.81;5038291;28;20056;-69
2022/10/08 08:59:12;;;;;;;0.30;0.30;;;;;;;14.35;51.17;100526.44;5038851;28;20056;-67
2022/10/08 09:01:42;;;;;;;0.20;0.20;;;;;;;14.03;52.39;100522.19;5023151;28;20049;-69
2022/10/08 09:04:20;;;;;;;0.20;0.20;;;;;;;13.75;53.33;100510.72;5025764;28;20083;-69
2022/10/08 09:06:47;;;;;;;0.30;0.30;;;;;;;13.61;53.57;100508.53;5024674;28;20051;-69
2022/10/08 09:09:23;;;;;;;0.30;0.30;;;;;;;13.69;53.18;100518.13;5023476;28;20046;-69
2022/10/08 09:11:50;;;;;;;0.30;0.30;;;;;;;13.65;52.60;100502.47;5022780;28;20544;-69
2022/10/08 09:14:35;;;;;;;0.20;0.20;;;;;;;13.36;52.74;100481.09;5025500;28;20046;-69
2022/10/08 09:17:12;;;;;;;0.30;0.30;;;;;;;13.26;52.49;100523.94;5022963;28;20053;-68
2022/10/08 09:19:39;;;;;;;0.70;0.70;;;;;;;13.80;51.90;100483.19;5022227;28;20049;-68
2022/10/08 09:22:14;;;;;;;0.70;0.70;;;;;;;15.49;47.64;100498.09;5026247;28;20080;-68
2022/10/08 09:24:41;;;;;;;0.60;0.60;;;;;;;17.17;44.22;100509.44;5032198;28;20049;-68
2022/10/08 09:27:13;;;;;;;0.70;0.70;;;;;;;17.15;43.39;100482.94;5030431;28;20049;-68
2022/10/08 09:29:39;;;;;;;0.70;0.70;;;;;;;17.09;43.42;100522.00;5032182;28;20053;-69
2022/10/08 09:32:13;;;;;;;0.80;0.80;;;;;;;17.51;43.04;100492.56;5025047;28;20073;-68
2022/10/08 09:34:39;;;;;;;0.80;0.80;;;;;;;17.52;42.70;100485.91;5028869;28;20045;-69
2022/10/08 09:37:17;;;;;;;0.80;0.80;;;;;;;17.88;41.77;100494.66;5038187;28;20547;-69
2022/10/08 09:40:16;;;;;;;0.80;0.80;;;;;;;18.01;41.99;100474.44;5032424;28;20053;-69
2022/10/08 09:42:44;;;;;;;0.40;0.40;;;;;;;18.13;40.79;100483.06;5027455;28;20190;-68
2022/10/08 09:45:31;;;;;;;0.90;0.90;;;;;;;18.45;41.02;100477.69;5031025;28;20050;-68
2022/10/08 09:48:15;;;;;;;0.90;0.90;;;;;;;19.15;39.25;100462.75;5029388;28;20151;-68
2022/10/08 09:50:47;;;;;;;1.00;1.00;;;;;;;19.74;38.27;100456.97;5028824;28;20041;-68
2022/10/08 09:53:13;;;;;;;1.10;1.10;;;;;;;20.57;37.01;100450.94;5029616;28;20052;-68
2022/10/08 09:55:47;;;;;;;1.02;1.02;;;;;;;21.23;35.93;100447.13;5028191;28;20045;-70
2022/10/08 09:58:17;;;;;;;1.10;1.10;;;;;;;21.42;34.74;100460.63;5028482;28;20046;-69
2022/10/08 10:00:43;;;;;;;1.00;1.00;;;;;;;21.17;34.96;100451.22;5015952;28;20056;-70
2022/10/08 10:03:16;;;;;;;0.90;0.90;;;;;;;21.38;34.21;100442.97;5025183;28;20690;-70
2022/10/08 10:05:49;;;;;;;1.00;1.00;;;;;;;21.45;33.84;100428.56;5027847;28;20485;-70
2022/10/08 10:08:48;;;;;;;1.00;1.00;;;;;;;21.49;33.54;100449.81;5026633;28;20643;-70
2022/10/08 10:11:23;;;;;;;1.10;1.10;;;;;;;21.48;34.00;100422.31;5034417;28;20049;-69
2022/10/08 10:13:50;;;;;;;1.00;1.00;;;;;;;22.09;33.11;100437.91;5044669;28;20904;-71
2022/10/08 10:16:22;;;;;;;1.15;1.05;;;;;;;22.03;32.75;100479.03;5036966;28;20041;-70
2022/10/08 10:18:54;;;;;;;1.10;1.10;;;;;;;21.47;33.85;100429.88;5040395;28;20622;-68
2022/10/08 10:21:26;;;;;;;1.10;1.10;;;;;;;21.33;34.25;100423.72;5031053;28;20479;-69
2022/10/08 10:24:04;;;;;;;1.10;1.10;;;;;;;20.74;34.52;100425.13;5026461;28;20046;-68
2022/10/08 10:26:35;;;;;;;1.27;1.17;;;;;;;20.95;34.32;100414.16;5039441;28;20121;-69
2022/10/08 10:29:08;;;;;;;1.10;1.10;;;;;;;20.61;34.66;100407.50;5046804;28;20052;-69
2022/10/08 10:31:39;;;;;;;1.00;1.00;;;;;;;20.67;35.06;100433.97;5043119;28;20064;-68
2022/10/08 10:34:10;;;;;;;1.10;1.10;;;;;;;20.93;34.87;100410.91;5043770;28;20050;-69
2022/10/08 10:36:42;;;;;;;1.20;1.20;;;;;;;21.04;34.19;100400.25;5037446;28;20424;-69
2022/10/08 10:39:16;;;;;;;1.30;1.20;;;;;;;20.80;34.84;100401.56;5024583;28;20054;-69
2022/10/08 10:41:50;;;;;;;1.10;1.10;;;;;;;20.99;34.14;100394.84;5031771;28;20186;-69
2022/10/08 10:44:22;;;;;;;1.30;1.20;;;;;;;21.43;33.75;100381.59;5039763;28;20512;-69
2022/10/08 10:46:50;;;;;;;1.30;1.20;;;;;;;21.91;32.78;100398.22;5039190;28;20595;-70
2022/10/08 10:49:20;;;;;;;1.20;1.20;;;;;;;22.01;32.09;100397.84;5042608;28;20045;-70
2022/10/08 10:51:58;;;;;;;1.30;1.20;;;;;;;21.78;32.98;100373.13;5033934;28;20048;-69
2022/10/08 10:54:48;;;;;;;1.30;1.20;;;;;;;21.56;33.67;100396.44;5024684;28;20045;-69
2022/10/08 10:57:28;;;;;;;1.30;1.20;;;;;;;21.63;33.74;100374.47;5026295;28;20154;-69
2022/10/08 11:00:03;;;;;;;1.30;1.20;;;;;;;22.21;32.78;100375.91;5028675;28;20053;-70
2022/10/08 11:02:36;;;;;;;1.30;1.20;;;;;;;22.79;31.13;100380.81;5027746;28;20460;-70
2022/10/08 11:05:09;;;;;;;1.10;1.10;;;;;;;22.52;31.73;100385.81;5026425;28;20061;-69
2022/10/08 11:07:50;;;;;;;1.30;1.20;;;;;;;22.27;32.25;100377.34;5023587;28;20069;-68
2022/10/08 11:10:29;;;;;;;1.30;1.20;;;;;;;22.36;32.21;100380.84;5021497;28;20069;-68
2022/10/08 11:13:02;;;;;;;0.77;0.77;;;;;;;21.52;33.51;100371.25;5027949;28;20041;-69
2022/10/08 11:15:36;;;;;;;1.30;1.20;;;;;;;21.27;34.36;100377.75;5028696;28;20380;-69
2022/10/08 11:18:17;;;;;;;1.13;1.13;;;;;;;22.01;33.24;100356.09;5024409;28;20057;-69
2022/10/08 11:20:58;;;;;;;0.52;0.52;;;;;;;21.08;34.44;100357.56;5025926;28;20051;-68
2022/10/08 11:23:49;;;;;;;0.77;0.77;;;;;;;19.93;37.01;100358.81;5024891;28;20077;-69
2022/10/08 11:26:24;;;;;;;1.75;1.30;;;;;;;21.38;34.20;100367.91;4700386;28;10000041;-69
2022/10/08 11:29:00;;;;;;;1.20;1.20;;;;;;;21.46;34.02;100349.53;5059031;28;20041;-69
2022/10/08 11:31:38;;;;;;;1.38;1.27;;;;;;;21.39;33.95;100345.31;5060803;28;20041;-68
2022/10/08 11:34:18;;;;;;;1.40;1.30;;;;;;;22.25;32.79;100349.03;5051977;28;20049;-67
2022/10/08 11:36:55;;;;;;;1.40;1.30;;;;;;;22.50;31.45;100347.19;5039318;28;20061;-69
2022/10/08 11:39:30;;;;;;;0.80;0.80;;;;;;;21.24;33.63;100357.00;5044995;28;20052;-68
2022/10/08 11:42:04;;;;;;;1.30;1.20;;;;;;;21.09;34.29;100327.78;5045635;28;20117;-68
2022/10/08 11:44:31;;;;;;;1.40;1.30;;;;;;;21.36;34.24;100337.63;5044308;28;20069;-68